sensor_id;sensor_type;location;lat;lon;timestamp;pressure;altitude;pressure_sealevel;temperature;humidity
35676;BME280;21790;42.668;23.298;2023-02-03T00:01:12;94903.53;;;10.48;40.27
35676;BME280;21790;42.668;23.298;2023-02-03T00:03:37;94892.63;;;10.54;40.00
35676;BME280;21790;42.668;23.298;2023-02-03T00:06:05;94893.66;;;10.38;40.62
35676;BME280;21790;42.668;23.298;2023-02-03T00:08:32;94901.44;;;10.21;41.10
35676;BME280;21790;42.668;23.298;2023-02-03T00:10:57;94892.13;;;10.06;41.49
35676;BME280;21790;42.668;23.298;2023-02-03T00:13:23;94901.56;;;10.18;41.34
35676;BME280;21790;42.668;23.298;2023-02-03T00:15:51;94906.50;;;10.23;41.06
35676;BME280;21790;42.668;23.298;2023-02-03T00:18:16;94914.38;;;10.33;41.32
35676;BME280;21790;42.668;23.298;2023-02-03T00:20:41;94900.25;;;10.31;41.60
35676;BME280;21790;42.668;23.298;2023-02-03T00:23:09;94908.53;;;10.31;41.79
35676;BME280;21790;42.668;23.298;2023-02-03T00:25:35;94905.41;;;10.20;42.14
35676;BME280;21790;42.668;23.298;2023-02-03T00:28:01;94908.53;;;10.31;41.72
35676;BME280;21790;42.668;23.298;2023-02-03T00:30:28;94915.28;;;10.30;41.65
35676;BME280;21790;42.668;23.298;2023-02-03T00:32:53;94906.50;;;10.23;42.37
35676;BME280;21790;42.668;23.298;2023-02-03T00:35:19;94907.09;;;10.18;42.24
35676;BME280;21790;42.668;23.298;2023-02-03T00:37:53;94917.75;;;10.37;42.00
35676;BME280;21790;42.668;23.298;2023-02-03T00:40:20;94921.72;;;10.27;42.35
35676;BME280;21790;42.668;23.298;2023-02-03T00:42:46;94928.00;;;10.28;42.47
35676;BME280;21790;42.668;23.298;2023-02-03T00:45:11;94921.09;;;10.23;42.27
35676;BME280;21790;42.668;23.298;2023-02-03T00:47:37;94930.63;;;10.31;42.01
35676;BME280;21790;42.668;23.298;2023-02-03T00:50:04;94919.75;;;10.37;42.24
35676;BME280;21790;42.668;23.298;2023-02-03T00:52:30;94915.72;;;10.20;42.08
35676;BME280;21790;42.668;23.298;2023-02-03T00:54:55;94929.28;;;10.36;42.40
35676;BME280;21790;42.668;23.298;2023-02-03T00:57:21;94928.03;;;10.37;41.79
35676;BME280;21790;42.668;23.298;2023-02-03T00:59:46;94931.88;;;10.30;41.74
35676;BME280;21790;42.668;23.298;2023-02-03T01:02:12;94926.06;;;10.16;42.01
35676;BME280;21790;42.668;23.298;2023-02-03T01:04:37;94939.31;;;10.21;42.15
35676;BME280;21790;42.668;23.298;2023-02-03T01:07:03;94953.63;;;10.28;42.09
35676;BME280;21790;42.668;23.298;2023-02-03T01:09:32;94957.22;;;10.38;42.42
35676;BME280;21790;42.668;23.298;2023-02-03T01:11:57;94944.06;;;10.20;42.16
35676;BME280;21790;42.668;23.298;2023-02-03T01:14:23;94947.34;;;10.06;42.48
35676;BME280;21790;42.668;23.298;2023-02-03T01:16:48;94954.50;;;10.16;42.70
35676;BME280;21790;42.668;23.298;2023-02-03T01:19:14;94945.50;;;10.03;43.04
35676;BME280;21790;42.668;23.298;2023-02-03T01:21:41;94947.56;;;9.90;42.28
35676;BME280;21790;42.668;23.298;2023-02-03T01:24:06;94946.59;;;9.84;43.19
35676;BME280;21790;42.668;23.298;2023-02-03T01:26:34;94948.47;;;10.08;42.12
35676;BME280;21790;42.668;23.298;2023-02-03T01:29:00;94946.91;;;10.07;42.53
35676;BME280;21790;42.668;23.298;2023-02-03T01:31:31;94941.63;;;10.22;41.85
35676;BME280;21790;42.668;23.298;2023-02-03T01:33:59;94942.09;;;10.21;41.58
35676;BME280;21790;42.668;23.298;2023-02-03T01:36:27;94938.00;;;10.25;41.62
35676;BME280;21790;42.668;23.298;2023-02-03T01:38:53;94940.53;;;10.51;57.41
35676;BME280;21790;42.668;23.298;2023-02-03T01:41:25;94934.56;;;11.38;42.23
35676;BME280;21790;42.668;23.298;2023-02-03T01:43:53;94946.81;;;11.00;40.44
35676;BME280;21790;42.668;23.298;2023-02-03T01:48:51;94958.69;;;10.61;40.92
35676;BME280;21790;42.668;23.298;2023-02-03T01:51:17;94958.75;;;10.39;41.05
35676;BME280;21790;42.668;23.298;2023-02-03T01:53:43;94968.13;;;10.41;40.88
35676;BME280;21790;42.668;23.298;2023-02-03T01:56:09;94974.09;;;10.40;41.08
35676;BME280;21790;42.668;23.298;2023-02-03T01:58:38;94973.69;;;10.51;41.26
35676;BME280;21790;42.668;23.298;2023-02-03T02:01:04;94966.88;;;10.42;40.72
35676;BME280;21790;42.668;23.298;2023-02-03T02:03:43;94955.72;;;10.46;40.94
35676;BME280;21790;42.668;23.298;2023-02-03T02:06:12;94967.59;;;10.25;41.24
35676;BME280;21790;42.668;23.298;2023-02-03T02:08:39;94967.47;;;10.37;41.06
35676;BME280;21790;42.668;23.298;2023-02-03T02:11:06;94965.59;;;10.25;40.88
35676;BME280;21790;42.668;23.298;2023-02-03T02:13:35;94972.94;;;10.19;41.24
35676;BME280;21790;42.668;23.298;2023-02-03T02:16:12;94975.16;;;10.12;41.74
35676;BME280;21790;42.668;23.298;2023-02-03T02:25:29;94980.16;;;10.57;40.38
35676;BME280;21790;42.668;23.298;2023-02-03T02:35:11;94981.88;;;10.32;40.95
35676;BME280;21790;42.668;23.298;2023-02-03T02:43:03;94990.06;;;10.14;41.00
35676;BME280;21790;42.668;23.298;2023-02-03T02:46:13;94986.78;;;10.28;40.49
35676;BME280;21790;42.668;23.298;2023-02-03T02:48:25;94957.34;;;9.82;41.14
35676;BME280;21790;42.668;23.298;2023-02-03T02:50:52;94972.34;;;10.02;41.17
35676;BME280;21790;42.668;23.298;2023-02-03T02:53:23;94975.41;;;10.04;40.70
35676;BME280;21790;42.668;23.298;2023-02-03T02:55:51;94984.97;;;10.13;40.58
35676;BME280;21790;42.668;23.298;2023-02-03T02:58:18;94996.47;;;10.11;40.36
35676;BME280;21790;42.668;23.298;2023-02-03T03:00:45;95001.03;;;10.05;40.30
35676;BME280;21790;42.668;23.298;2023-02-03T03:03:20;95007.94;;;10.22;40.40
35676;BME280;21790;42.668;23.298;2023-02-03T03:05:55;95001.78;;;10.18;40.38
35676;BME280;21790;42.668;23.298;2023-02-03T03:08:30;95006.91;;;10.29;40.00
35676;BME280;21790;42.668;23.298;2023-02-03T03:10:57;94998.03;;;10.12;39.41
35676;BME280;21790;42.668;23.298;2023-02-03T03:13:31;95011.50;;;10.32;39.81
35676;BME280;21790;42.668;23.298;2023-02-03T03:15:58;95015.56;;;9.96;39.85
35676;BME280;21790;42.668;23.298;2023-02-03T03:18:41;95019.66;;;9.92;40.03
35676;BME280;21790;42.668;23.298;2023-02-03T03:21:13;95020.34;;;9.83;39.84
35676;BME280;21790;42.668;23.298;2023-02-03T03:23:43;95024.84;;;10.12;39.27
35676;BME280;21790;42.668;23.298;2023-02-03T03:26:14;95020.56;;;9.89;39.18
35676;BME280;21790;42.668;23.298;2023-02-03T03:28:50;95025.00;;;10.08;39.23
35676;BME280;21790;42.668;23.298;2023-02-03T03:31:18;95022.91;;;9.78;39.33
35676;BME280;21790;42.668;23.298;2023-02-03T03:33:45;95031.47;;;9.71;39.38
35676;BME280;21790;42.668;23.298;2023-02-03T03:36:32;95032.44;;;9.98;39.29
35676;BME280;21790;42.668;23.298;2023-02-03T03:39:12;95028.06;;;9.88;39.49
35676;BME280;21790;42.668;23.298;2023-02-03T03:44:34;95018.75;;;9.95;39.13
35676;BME280;21790;42.668;23.298;2023-02-03T03:49:53;95022.69;;;9.50;39.93
35676;BME280;21790;42.668;23.298;2023-02-03T03:52:25;95012.63;;;9.56;39.50
35676;BME280;21790;42.668;23.298;2023-02-03T03:54:54;95008.81;;;9.54;39.50
35676;BME280;21790;42.668;23.298;2023-02-03T03:57:27;95011.50;;;9.66;39.49
35676;BME280;21790;42.668;23.298;2023-02-03T03:59:55;95004.63;;;9.71;39.60
35676;BME280;21790;42.668;23.298;2023-02-03T04:02:21;95012.66;;;9.78;39.09
35676;BME280;21790;42.668;23.298;2023-02-03T04:04:48;95010.66;;;9.79;40.19
35676;BME280;21790;42.668;23.298;2023-02-03T04:07:14;95016.16;;;9.57;41.45
35676;BME280;21790;42.668;23.298;2023-02-03T04:09:40;95013.81;;;9.68;40.23
35676;BME280;21790;42.668;23.298;2023-02-03T04:12:27;95013.00;;;10.02;39.48
35676;BME280;21790;42.668;23.298;2023-02-03T04:14:52;95025.09;;;9.83;40.00
35676;BME280;21790;42.668;23.298;2023-02-03T04:17:18;95028.34;;;10.03;39.16
35676;BME280;21790;42.668;23.298;2023-02-03T04:19:45;95027.00;;;9.86;39.99
35676;BME280;21790;42.668;23.298;2023-02-03T04:22:10;95027.94;;;9.92;39.47
35676;BME280;21790;42.668;23.298;2023-02-03T04:24:36;95034.88;;;9.96;39.29
35676;BME280;21790;42.668;23.298;2023-02-03T04:27:01;95042.78;;;10.07;39.13
35676;BME280;21790;42.668;23.298;2023-02-03T04:29:26;95050.81;;;10.14;39.08
35676;BME280;21790;42.668;23.298;2023-02-03T04:31:52;95063.00;;;10.04;39.17
35676;BME280;21790;42.668;23.298;2023-02-03T04:34:17;95056.97;;;9.96;39.23
35676;BME280;21790;42.668;23.298;2023-02-03T04:36:43;95065.06;;;9.91;39.22
35676;BME280;21790;42.668;23.298;2023-02-03T04:39:08;95052.66;;;9.95;39.33
35676;BME280;21790;42.668;23.298;2023-02-03T04:41:34;95064.28;;;10.12;39.50
35676;BME280;21790;42.668;23.298;2023-02-03T04:43:59;95071.00;;;10.24;38.98
35676;BME280;21790;42.668;23.298;2023-02-03T04:46:25;95075.13;;;10.19;38.58
35676;BME280;21790;42.668;23.298;2023-02-03T04:48:50;95078.53;;;10.11;38.98
35676;BME280;21790;42.668;23.298;2023-02-03T04:51:16;95088.81;;;10.10;38.86
35676;BME280;21790;42.668;23.298;2023-02-03T04:53:41;95089.28;;;10.08;39.12
35676;BME280;21790;42.668;23.298;2023-02-03T04:56:06;95100.53;;;10.14;38.98
35676;BME280;21790;42.668;23.298;2023-02-03T04:58:32;95093.34;;;10.17;38.83
35676;BME280;21790;42.668;23.298;2023-02-03T05:00:57;95097.66;;;10.05;38.66
35676;BME280;21790;42.668;23.298;2023-02-03T05:03:29;95101.91;;;9.97;39.20
35676;BME280;21790;42.668;23.298;2023-02-03T05:05:55;95101.91;;;9.97;39.32
35676;BME280;21790;42.668;23.298;2023-02-03T05:08:21;95106.41;;;9.82;39.01
35676;BME280;21790;42.668;23.298;2023-02-03T05:10:46;95109.88;;;9.95;39.03
35676;BME280;21790;42.668;23.298;2023-02-03T05:13:12;95109.56;;;10.15;39.00
35676;BME280;21790;42.668;23.298;2023-02-03T05:15:37;95113.78;;;10.19;38.78
35676;BME280;21790;42.668;23.298;2023-02-03T05:18:03;95109.69;;;10.11;38.68
35676;BME280;21790;42.668;23.298;2023-02-03T05:20:28;95122.38;;;10.21;38.77
35676;BME280;21790;42.668;23.298;2023-02-03T05:22:57;95138.13;;;9.99;39.20
35676;BME280;21790;42.668;23.298;2023-02-03T05:25:22;95121.75;;;10.17;39.13
35676;BME280;21790;42.668;23.298;2023-02-03T05:27:48;95133.91;;;10.07;38.82
35676;BME280;21790;42.668;23.298;2023-02-03T05:30:13;95131.78;;;10.11;38.95
35676;BME280;21790;42.668;23.298;2023-02-03T05:32:39;95144.81;;;10.11;38.75
35676;BME280;21790;42.668;23.298;2023-02-03T05:35:05;95139.84;;;10.18;38.49
35676;BME280;21790;42.668;23.298;2023-02-03T05:37:30;95137.75;;;10.09;39.03
35676;BME280;21790;42.668;23.298;2023-02-03T05:39:56;95140.50;;;10.09;38.78
35676;BME280;21790;42.668;23.298;2023-02-03T05:42:48;95130.03;;;10.17;39.22
35676;BME280;21790;42.668;23.298;2023-02-03T05:45:15;95136.31;;;10.05;39.14
35676;BME280;21790;42.668;23.298;2023-02-03T05:47:40;95137.81;;;9.97;39.11
35676;BME280;21790;42.668;23.298;2023-02-03T05:50:06;95138.78;;;10.03;39.17
35676;BME280;21790;42.668;23.298;2023-02-03T05:52:32;95138.13;;;9.99;39.24
35676;BME280;21790;42.668;23.298;2023-02-03T05:54:57;95135.63;;;9.92;39.44
35676;BME280;21790;42.668;23.298;2023-02-03T05:57:22;95149.00;;;9.81;39.19
35676;BME280;21790;42.668;23.298;2023-02-03T05:59:48;95151.28;;;9.95;39.08
35676;BME280;21790;42.668;23.298;2023-02-03T06:02:14;95160.56;;;9.88;39.09
35676;BME280;21790;42.668;23.298;2023-02-03T06:04:39;95150.00;;;9.87;39.43
35676;BME280;21790;42.668;23.298;2023-02-03T06:07:05;95150.13;;;10.05;39.31
35676;BME280;21790;42.668;23.298;2023-02-03T06:09:31;95171.22;;;10.12;39.04
35676;BME280;21790;42.668;23.298;2023-02-03T06:11:56;95165.94;;;10.17;38.70
35676;BME280;21790;42.668;23.298;2023-02-03T06:14:22;95165.41;;;10.31;38.87
35676;BME280;21790;42.668;23.298;2023-02-03T06:16:47;95173.16;;;10.36;38.83
35676;BME280;21790;42.668;23.298;2023-02-03T06:19:13;95172.19;;;10.30;38.61
35676;BME280;21790;42.668;23.298;2023-02-03T06:21:38;95164.94;;;10.45;38.08
35676;BME280;21790;42.668;23.298;2023-02-03T06:24:03;95165.69;;;10.68;38.10
35676;BME280;21790;42.668;23.298;2023-02-03T06:26:29;95177.00;;;10.61;37.82
35676;BME280;21790;42.668;23.298;2023-02-03T06:28:55;95175.75;;;10.53;37.88
35676;BME280;21790;42.668;23.298;2023-02-03T06:31:20;95174.75;;;10.12;38.39
35676;BME280;21790;42.668;23.298;2023-02-03T06:33:45;95183.94;;;10.43;38.13
35676;BME280;21790;42.668;23.298;2023-02-03T06:36:11;95175.47;;;10.60;37.60
35676;BME280;21790;42.668;23.298;2023-02-03T06:38:36;95177.41;;;10.72;37.82
35676;BME280;21790;42.668;23.298;2023-02-03T06:41:02;95180.78;;;10.54;37.52
35676;BME280;21790;42.668;23.298;2023-02-03T06:43:27;95194.59;;;10.32;37.25
35676;BME280;21790;42.668;23.298;2023-02-03T06:45:53;95190.50;;;10.59;37.67
35676;BME280;21790;42.668;23.298;2023-02-03T06:48:18;95205.81;;;10.72;36.70
35676;BME280;21790;42.668;23.298;2023-02-03T06:50:44;95207.19;;;10.33;36.72
35676;BME280;21790;42.668;23.298;2023-02-03T06:53:10;95209.50;;;10.35;37.15
35676;BME280;21790;42.668;23.298;2023-02-03T06:55:35;95212.47;;;10.40;37.10
35676;BME280;21790;42.668;23.298;2023-02-03T06:58:01;95213.28;;;10.63;37.12
35676;BME280;21790;42.668;23.298;2023-02-03T07:00:27;95204.66;;;10.82;36.57
35676;BME280;21790;42.668;23.298;2023-02-03T07:02:53;95206.06;;;10.65;36.59
35676;BME280;21790;42.668;23.298;2023-02-03T07:05:20;95206.84;;;10.66;36.79
35676;BME280;21790;42.668;23.298;2023-02-03T07:07:46;95208.00;;;10.77;36.88
35676;BME280;21790;42.668;23.298;2023-02-03T07:10:13;95205.09;;;11.33;36.03
35676;BME280;21790;42.668;23.298;2023-02-03T07:12:39;95198.59;;;11.67;35.33
35676;BME280;21790;42.668;23.298;2023-02-03T07:15:04;95205.63;;;11.81;35.21
35676;BME280;21790;42.668;23.298;2023-02-03T07:17:30;95200.91;;;11.60;35.14
35676;BME280;21790;42.668;23.298;2023-02-03T07:19:56;95200.47;;;12.10;34.70
35676;BME280;21790;42.668;23.298;2023-02-03T07:22:21;95207.94;;;11.83;34.21
35676;BME280;21790;42.668;23.298;2023-02-03T07:24:46;95190.13;;;11.93;34.85
35676;BME280;21790;42.668;23.298;2023-02-03T07:27:12;95205.41;;;12.25;34.27
35676;BME280;21790;42.668;23.298;2023-02-03T07:29:37;95204.00;;;12.38;33.97
35676;BME280;21790;42.668;23.298;2023-02-03T07:32:03;95203.13;;;12.69;33.84
35676;BME280;21790;42.668;23.298;2023-02-03T07:34:28;95214.97;;;12.96;33.49
35676;BME280;21790;42.668;23.298;2023-02-03T07:36:55;95214.66;;;12.94;32.99
35676;BME280;21790;42.668;23.298;2023-02-03T07:39:20;95217.09;;;13.02;33.03
35676;BME280;21790;42.668;23.298;2023-02-03T07:41:45;95220.53;;;12.69;33.09
35676;BME280;21790;42.668;23.298;2023-02-03T07:44:11;95210.97;;;12.79;32.66
35676;BME280;21790;42.668;23.298;2023-02-03T07:46:36;95226.34;;;12.26;33.35
35676;BME280;21790;42.668;23.298;2023-02-03T07:49:05;95228.34;;;12.16;33.51
35676;BME280;21790;42.668;23.298;2023-02-03T07:51:31;95226.47;;;12.13;33.64
35676;BME280;21790;42.668;23.298;2023-02-03T07:53:56;95228.66;;;12.45;33.88
35676;BME280;21790;42.668;23.298;2023-02-03T07:56:21;95220.03;;;12.16;33.55
35676;BME280;21790;42.668;23.298;2023-02-03T07:58:51;95232.44;;;12.02;33.85
35676;BME280;21790;42.668;23.298;2023-02-03T08:01:16;95223.59;;;12.53;34.05
35676;BME280;21790;42.668;23.298;2023-02-03T08:03:42;95220.53;;;12.69;33.19
35676;BME280;21790;42.668;23.298;2023-02-03T08:06:08;95235.00;;;12.46;33.29
35676;BME280;21790;42.668;23.298;2023-02-03T08:08:34;95233.91;;;12.62;33.06
35676;BME280;21790;42.668;23.298;2023-02-03T08:11:00;95226.22;;;12.75;32.96
35676;BME280;21790;42.668;23.298;2023-02-03T08:13:25;95235.00;;;12.73;32.56
35676;BME280;21790;42.668;23.298;2023-02-03T08:15:51;95225.28;;;12.78;32.67
35676;BME280;21790;42.668;23.298;2023-02-03T08:18:16;95234.84;;;12.58;33.56
35676;BME280;21790;42.668;23.298;2023-02-03T08:20:42;95228.22;;;12.47;32.78
35676;BME280;21790;42.668;23.298;2023-02-03T08:23:07;95223.28;;;12.51;33.06
35676;BME280;21790;42.668;23.298;2023-02-03T08:25:33;95233.84;;;12.07;33.33
35676;BME280;21790;42.668;23.298;2023-02-03T08:27:58;95227.28;;;12.41;33.43
35676;BME280;21790;42.668;23.298;2023-02-03T08:30:24;95237.16;;;12.42;33.20
35676;BME280;21790;42.668;23.298;2023-02-03T08:32:50;95234.69;;;12.71;33.36
35676;BME280;21790;42.668;23.298;2023-02-03T08:35:16;95248.38;;;12.93;31.85
35676;BME280;21790;42.668;23.298;2023-02-03T08:37:42;95249.31;;;13.08;32.22
35676;BME280;21790;42.668;23.298;2023-02-03T08:40:09;95249.16;;;13.30;32.23
35676;BME280;21790;42.668;23.298;2023-02-03T08:42:35;95249.78;;;12.88;31.92
35676;BME280;21790;42.668;23.298;2023-02-03T08:45:02;95251.31;;;13.08;32.77
35676;BME280;21790;42.668;23.298;2023-02-03T08:47:27;95261.19;;;13.27;32.01
35676;BME280;21790;42.668;23.298;2023-02-03T08:49:53;95259.00;;;13.40;31.67
35676;BME280;21790;42.668;23.298;2023-02-03T08:52:18;95259.72;;;13.59;32.24
35676;BME280;21790;42.668;23.298;2023-02-03T08:54:44;95252.91;;;13.69;31.73
35676;BME280;21790;42.668;23.298;2023-02-03T08:57:10;95264.47;;;13.67;32.31
35676;BME280;21790;42.668;23.298;2023-02-03T08:59:37;95266.28;;;13.28;32.24
35676;BME280;21790;42.668;23.298;2023-02-03T09:02:04;95265.47;;;13.46;32.48
35676;BME280;21790;42.668;23.298;2023-02-03T09:04:30;95268.28;;;13.28;31.92
35676;BME280;21790;42.668;23.298;2023-02-03T09:06:58;95269.97;;;12.80;33.33
35676;BME280;21790;42.668;23.298;2023-02-03T09:09:24;95276.00;;;12.96;32.84
35676;BME280;21790;42.668;23.298;2023-02-03T09:11:51;95260.13;;;12.97;32.76
35676;BME280;21790;42.668;23.298;2023-02-03T09:14:17;95266.72;;;12.99;33.41
35676;BME280;21790;42.668;23.298;2023-02-03T09:16:43;95259.19;;;12.82;33.28
35676;BME280;21790;42.668;23.298;2023-02-03T09:19:08;95259.31;;;12.87;33.59
35676;BME280;21790;42.668;23.298;2023-02-03T09:21:34;95262.91;;;13.24;33.49
35676;BME280;21790;42.668;23.298;2023-02-03T09:24:00;95251.16;;;13.11;33.16
35676;BME280;21790;42.668;23.298;2023-02-03T09:26:26;95248.44;;;14.04;33.00
35676;BME280;21790;42.668;23.298;2023-02-03T09:28:52;95252.22;;;14.49;31.76
35676;BME280;21790;42.668;23.298;2023-02-03T09:31:17;95260.50;;;14.25;31.26
35676;BME280;21790;42.668;23.298;2023-02-03T09:33:44;95250.09;;;14.11;31.76
35676;BME280;21790;42.668;23.298;2023-02-03T09:36:10;95250.56;;;14.42;31.89
35676;BME280;21790;42.668;23.298;2023-02-03T09:38:36;95256.69;;;14.22;31.22
35676;BME280;21790;42.668;23.298;2023-02-03T09:41:34;95252.28;;;14.40;31.30
35676;BME280;21790;42.668;23.298;2023-02-03T09:47:03;95235.47;;;13.68;31.15
35676;BME280;21790;42.668;23.298;2023-02-03T09:52:18;95240.44;;;13.55;31.32
35676;BME280;21790;42.668;23.298;2023-02-03T09:57:21;95233.38;;;14.20;30.56
35676;BME280;21790;42.668;23.298;2023-02-03T09:59:48;95237.63;;;14.30;29.93
35676;BME280;21790;42.668;23.298;2023-02-03T10:17:04;95216.25;;;14.84;29.56
35676;BME280;21790;42.668;23.298;2023-02-03T10:22:13;95225.81;;;13.88;29.81
35676;BME280;21790;42.668;23.298;2023-02-03T10:24:43;95219.13;;;14.27;30.08
35676;BME280;21790;42.668;23.298;2023-02-03T10:27:29;95217.63;;;15.03;29.16
35676;BME280;21790;42.668;23.298;2023-02-03T10:30:24;95215.34;;;15.45;28.69
35676;BME280;21790;42.668;23.298;2023-02-03T10:32:53;95208.22;;;15.44;28.26
35676;BME280;21790;42.668;23.298;2023-02-03T10:35:21;95221.47;;;15.05;28.62
35676;BME280;21790;42.668;23.298;2023-02-03T10:37:54;95219.09;;;14.75;28.48
35676;BME280;21790;42.668;23.298;2023-02-03T10:40:25;95205.84;;;14.70;28.99
35676;BME280;21790;42.668;23.298;2023-02-03T10:42:51;95214.41;;;14.42;28.87
35676;BME280;21790;42.668;23.298;2023-02-03T10:45:37;95218.06;;;14.48;28.73
35676;BME280;21790;42.668;23.298;2023-02-03T10:48:04;95203.38;;;14.24;29.01
35676;BME280;21790;42.668;23.298;2023-02-03T10:50:31;95215.47;;;13.88;28.70
35676;BME280;21790;42.668;23.298;2023-02-03T10:53:33;95219.41;;;13.72;28.97
35676;BME280;21790;42.668;23.298;2023-02-03T10:56:10;95218.75;;;13.77;29.50
35676;BME280;21790;42.668;23.298;2023-02-03T10:58:40;95223.94;;;13.94;28.77
35676;BME280;21790;42.668;23.298;2023-02-03T11:01:16;95219.47;;;13.87;28.49
35676;BME280;21790;42.668;23.298;2023-02-03T11:03:53;95211.03;;;13.81;28.75
35676;BME280;21790;42.668;23.298;2023-02-03T11:06:19;95215.41;;;13.73;28.31
35676;BME280;21790;42.668;23.298;2023-02-03T11:08:49;95210.88;;;13.85;27.96
35676;BME280;21790;42.668;23.298;2023-02-03T11:11:22;95204.13;;;13.35;28.75
35676;BME280;21790;42.668;23.298;2023-02-03T11:14:14;95210.75;;;13.79;28.15
35676;BME280;21790;42.668;23.298;2023-02-03T11:16:42;95212.63;;;13.64;28.32
35676;BME280;21790;42.668;23.298;2023-02-03T11:21:48;95204.78;;;13.12;28.92
35676;BME280;21790;42.668;23.298;2023-02-03T11:24:32;95203.84;;;13.15;28.93
35676;BME280;21790;42.668;23.298;2023-02-03T11:29:39;95187.06;;;12.91;29.26
35676;BME280;21790;42.668;23.298;2023-02-03T11:32:34;95185.78;;;13.28;29.29
35676;BME280;21790;42.668;23.298;2023-02-03T11:35:26;95184.19;;;13.46;28.79
35676;BME280;21790;42.668;23.298;2023-02-03T11:37:57;95177.53;;;13.43;28.51
35676;BME280;21790;42.668;23.298;2023-02-03T11:40:26;95176.34;;;13.35;28.50
35676;BME280;21790;42.668;23.298;2023-02-03T11:45:31;95162.66;;;13.64;28.81
35676;BME280;21790;42.668;23.298;2023-02-03T11:48:01;95168.88;;;13.50;28.23
35676;BME280;21790;42.668;23.298;2023-02-03T11:50:47;95169.84;;;13.38;28.57
35676;BME280;21790;42.668;23.298;2023-02-03T11:56:37;95165.75;;;13.06;28.36
35676;BME280;21790;42.668;23.298;2023-02-03T12:12:25;95162.91;;;13.75;26.17
35676;BME280;21790;42.668;23.298;2023-02-03T12:28:42;95174.84;;;13.25;26.43
35676;BME280;21790;42.668;23.298;2023-02-03T12:33:57;95169.59;;;13.27;26.10
35676;BME280;21790;42.668;23.298;2023-02-03T12:36:29;95155.75;;;13.18;26.38
35676;BME280;21790;42.668;23.298;2023-02-03T12:39:04;95152.50;;;13.19;26.42
35676;BME280;21790;42.668;23.298;2023-02-03T12:41:37;95154.34;;;13.04;26.72
35676;BME280;21790;42.668;23.298;2023-02-03T12:44:16;95155.44;;;13.16;26.48
35676;BME280;21790;42.668;23.298;2023-02-03T12:46:49;95154.06;;;12.93;26.68
35676;BME280;21790;42.668;23.298;2023-02-03T12:52:04;95132.97;;;12.95;27.27
35676;BME280;21790;42.668;23.298;2023-02-03T12:57:33;95135.03;;;12.49;27.97
35676;BME280;21790;42.668;23.298;2023-02-03T13:00:21;95132.72;;;12.57;28.12
35676;BME280;21790;42.668;23.298;2023-02-03T13:06:01;95102.84;;;12.52;28.17
35676;BME280;21790;42.668;23.298;2023-02-03T13:11:32;95124.09;;;12.64;28.77
35676;BME280;21790;42.668;23.298;2023-02-03T13:16:53;95118.66;;;12.79;28.98
35676;BME280;21790;42.668;23.298;2023-02-03T13:19:24;95116.53;;;12.55;29.17
35676;BME280;21790;42.668;23.298;2023-02-03T13:21:51;95117.06;;;12.27;29.39
35676;BME280;21790;42.668;23.298;2023-02-03T13:24:17;95111.31;;;12.39;30.12
35676;BME280;21790;42.668;23.298;2023-02-03T13:29:49;95103.47;;;12.47;29.84
35676;BME280;21790;42.668;23.298;2023-02-03T13:37:53;95079.38;;;12.80;29.11
35676;BME280;21790;42.668;23.298;2023-02-03T13:43:16;95110.25;;;12.46;29.88
35676;BME280;21790;42.668;23.298;2023-02-03T13:45:46;95120.44;;;12.49;29.86
35676;BME280;21790;42.668;23.298;2023-02-03T13:50:38;95115.22;;;12.33;29.72
35676;BME280;21790;42.668;23.298;2023-02-03T13:55:42;95125.47;;;11.96;30.62
35676;BME280;21790;42.668;23.298;2023-02-03T13:58:27;95129.66;;;12.28;30.59
35676;BME280;21790;42.668;23.298;2023-02-03T14:05:52;95132.84;;;11.90;30.53
35676;BME280;21790;42.668;23.298;2023-02-03T14:16:39;95116.75;;;12.15;30.92
35676;BME280;21790;42.668;23.298;2023-02-03T14:19:22;95079.94;;;11.97;30.40
35676;BME280;21790;42.668;23.298;2023-02-03T14:22:15;95120.41;;;12.12;31.06
35676;BME280;21790;42.668;23.298;2023-02-03T14:24:42;95111.50;;;12.18;30.70
35676;BME280;21790;42.668;23.298;2023-02-03T14:27:16;95109.31;;;11.85;30.73
35676;BME280;21790;42.668;23.298;2023-02-03T14:29:43;95108.19;;;11.64;30.97
35676;BME280;21790;42.668;23.298;2023-02-03T14:32:10;95119.75;;;11.72;31.16
35676;BME280;21790;42.668;23.298;2023-02-03T14:34:37;95100.94;;;11.58;31.10
35676;BME280;21790;42.668;23.298;2023-02-03T14:37:12;95111.94;;;12.07;31.13
35676;BME280;21790;42.668;23.298;2023-02-03T14:51:00;95105.34;;;12.13;29.59
35676;BME280;21790;42.668;23.298;2023-02-03T14:53:58;95100.41;;;12.18;29.80
35676;BME280;21790;42.668;23.298;2023-02-03T15:02:27;95081.81;;;12.09;29.95
35676;BME280;21790;42.668;23.298;2023-02-03T15:07:47;95078.56;;;11.92;30.38
35676;BME280;21790;42.668;23.298;2023-02-03T15:12:49;95069.31;;;11.95;30.22
35676;BME280;21790;42.668;23.298;2023-02-03T15:17:45;95057.94;;;11.93;30.16
35676;BME280;21790;42.668;23.298;2023-02-03T15:20:36;95046.72;;;12.15;29.54
35676;BME280;21790;42.668;23.298;2023-02-03T15:23:21;95046.72;;;11.97;29.62
35676;BME280;21790;42.668;23.298;2023-02-03T15:28:23;95049.13;;;11.58;29.10
35676;BME280;21790;42.668;23.298;2023-02-03T15:30:55;95050.19;;;11.52;29.50
35676;BME280;21790;42.668;23.298;2023-02-03T15:33:25;95039.72;;;11.47;29.71
35676;BME280;21790;42.668;23.298;2023-02-03T15:35:58;95054.34;;;11.65;29.60
35676;BME280;21790;42.668;23.298;2023-02-03T15:38:34;95046.56;;;11.82;28.98
35676;BME280;21790;42.668;23.298;2023-02-03T15:41:02;95052.03;;;11.55;28.80
35676;BME280;21790;42.668;23.298;2023-02-03T15:43:34;95041.59;;;11.50;28.84
35676;BME280;21790;42.668;23.298;2023-02-03T15:46:08;95035.88;;;11.53;29.29